KSPS/SPS METAR and TAF weather

Enter ICAO airport designator
Station Type Date Time Source
KSPS METAR 2021/01/22 05:52 UTC NOAA

KSPS 220552Z 05008KT 6SM BR OVC007 07/07 A2994 RMK AO2 SLP137 T00720067 10100 20044 401500044 50013


Station Type Date Time Source
KSPS Decoded METAR 2021/01/22 05:52 UTC NOAA

WICHITA FALLS SHEPPARD AFB, TX, United States (KSPS) 33-59N 98-30W 308M
Jan 22, 2021 - 12:52 AM EST / 2021.01.22 0552 UTC
Wind: from the NE (050 degrees) at 9 MPH (8 KT):0
Visibility: 6 mile(s):0
Sky conditions: overcast
Weather: mist
Temperature: 45.0 F (7.2 C)
Dew Point: 44.1 F (6.7 C)
Relative Humidity: 96%
Pressure (altimeter): 29.94 in. Hg (1013 hPa)
Pressure tendency: 0.04 inches (1.3 hPa) higher than three hours ago
ob: KSPS 220552Z 05008KT 6SM BR OVC007 07/07 A2994 RMK AO2 SLP137 T00720067 10100 20044 401500044 50013
cycle: 6

Station Type Date Time Source
KSPS TAF 2021/01/22 06:27 UTC NOAA

TAF KSPS 220525Z 2206/2306 03006KT 6SM BR BKN008
TEMPO 2208/2212 1SM BR OVC004
FM221500 03010KT P6SM OVC012
FM222200 04010KT P6SM OVC025
FM230300 05008KT P6SM OVC015

Example: see airport list